createdAt,value
2018-04-13T00:01:55.084Z,66.30
2018-04-13T00:04:22.629Z,62.60
2018-04-13T00:06:51.001Z,65.70
2018-04-13T00:09:19.305Z,62.80
2018-04-13T00:11:46.878Z,62.90
2018-04-13T00:14:20.104Z,62.10
2018-04-13T00:16:47.668Z,64.60
2018-04-13T00:19:15.237Z,64.80
2018-04-13T00:21:42.797Z,59.70
2018-04-13T00:24:11.124Z,63.20
2018-04-13T00:26:38.670Z,63.10
2018-04-13T00:29:06.237Z,64.80
2018-04-13T00:31:33.786Z,62.30
2018-04-13T00:34:01.404Z,65.10
2018-04-13T00:36:29.717Z,60.70
2018-04-13T00:38:57.289Z,60.70
2018-04-13T00:41:24.828Z,60.20
2018-04-13T00:43:52.407Z,64.30
2018-04-13T00:46:19.956Z,65.30
2018-04-13T00:48:47.534Z,64.20
2018-04-13T00:51:15.082Z,63.80
2018-04-13T00:53:42.653Z,67.60
2018-04-13T00:56:10.210Z,67.60
2018-04-13T00:58:37.781Z,67.10
2018-04-13T01:01:05.326Z,61.30
2018-04-13T01:03:32.893Z,64.30
2018-04-13T01:06:00.466Z,64.40
2018-04-13T01:08:28.077Z,65.10
2018-04-13T01:10:55.630Z,62.60
2018-04-13T01:13:23.197Z,64.50
2018-04-13T01:15:50.743Z,64.20
2018-04-13T01:18:18.309Z,63.30
2018-04-13T01:20:45.878Z,62.80
2018-04-13T01:23:13.449Z,64.70
2018-04-13T01:25:41.003Z,62.90
2018-04-13T01:28:08.577Z,67.00
2018-04-13T01:30:36.125Z,64.60
2018-04-13T01:33:03.698Z,64.60
2018-04-13T01:35:31.250Z,65.20
2018-04-13T01:37:58.798Z,63.00
2018-04-13T01:40:26.369Z,61.40
2018-04-13T01:42:53.925Z,62.50
2018-04-13T01:45:21.493Z,64.80
2018-04-13T01:47:49.820Z,64.70
2018-04-13T01:50:17.386Z,64.50
2018-04-13T01:52:44.937Z,67.80
2018-04-13T01:55:13.277Z,66.90
2018-04-13T01:57:40.817Z,66.20
2018-04-13T02:00:08.419Z,65.40
2018-04-13T02:02:35.974Z,66.10
2018-04-13T02:05:04.312Z,65.90
2018-04-13T02:07:31.861Z,65.90
2018-04-13T02:09:59.430Z,62.40
2018-04-13T02:12:26.973Z,64.90
2018-04-13T02:14:54.548Z,64.50
2018-04-13T02:17:22.094Z,60.40
2018-04-13T02:19:49.665Z,61.40
2018-04-13T02:22:17.208Z,68.70
2018-04-13T02:24:44.769Z,67.00
2018-04-13T02:27:12.321Z,66.70
2018-04-13T02:29:39.889Z,67.10
2018-04-13T02:32:07.438Z,61.70
2018-04-13T02:34:35.081Z,64.80
2018-04-13T02:37:02.593Z,63.60
2018-04-13T02:39:30.168Z,62.50
2018-04-13T02:41:57.725Z,65.60
2018-04-13T02:44:25.300Z,63.70
2018-04-13T02:46:53.613Z,63.80
2018-04-13T02:49:21.163Z,63.70
2018-04-13T02:51:48.728Z,63.90
2018-04-13T02:54:16.269Z,62.40
2018-04-13T02:56:43.837Z,60.00
2018-04-13T02:59:11.391Z,64.30
2018-04-13T03:01:38.954Z,64.80
2018-04-13T03:04:06.501Z,65.70
2018-04-13T03:06:34.074Z,65.60
2018-04-13T03:09:01.640Z,64.10
2018-04-13T03:11:29.217Z,66.50
2018-04-13T03:13:56.756Z,65.50
2018-04-13T03:16:24.324Z,61.00
2018-04-13T03:18:51.870Z,62.60
2018-04-13T03:21:19.445Z,67.10
2018-04-13T03:23:46.987Z,64.30
2018-04-13T03:26:14.554Z,63.30
2018-04-13T03:28:42.100Z,63.50
2018-04-13T03:31:09.669Z,64.10
2018-04-13T03:33:37.221Z,61.20
2018-04-13T03:36:04.788Z,64.10
2018-04-13T03:38:32.329Z,65.30
2018-04-13T03:40:59.908Z,64.20
2018-04-13T03:43:27.456Z,62.90
2018-04-13T03:45:55.029Z,66.90
2018-04-13T03:48:22.589Z,60.40
2018-04-13T03:50:50.157Z,61.60
2018-04-13T03:53:17.713Z,67.80
2018-04-13T03:55:45.288Z,66.40
2018-04-13T03:58:12.841Z,65.70
2018-04-13T04:00:40.412Z,67.60
2018-04-13T04:03:07.990Z,66.40
2018-04-13T04:05:36.317Z,63.60
2018-04-13T04:08:03.880Z,63.40
2018-04-13T04:10:31.430Z,65.00
2018-04-13T04:12:58.993Z,65.70
2018-04-13T04:15:27.301Z,63.70
2018-04-13T04:17:54.929Z,63.40
2018-04-13T04:20:34.087Z,65.20
2018-04-13T04:23:13.533Z,66.00
2018-04-13T04:25:53.368Z,64.90
2018-04-13T04:28:20.937Z,64.80
2018-04-13T04:30:48.486Z,63.70
2018-04-13T04:33:16.047Z,66.10
2018-04-13T04:35:43.601Z,61.00
2018-04-13T04:38:11.176Z,66.40
2018-04-13T04:40:38.726Z,62.50
2018-04-13T04:43:06.342Z,62.60
2018-04-13T04:45:33.896Z,63.90
2018-04-13T04:48:01.473Z,62.30
2018-04-13T04:50:29.036Z,68.30
2018-04-13T04:52:56.602Z,63.10
2018-04-13T04:55:24.945Z,61.70
2018-04-13T04:57:53.279Z,63.60
2018-04-13T05:00:20.851Z,63.50
2018-04-13T05:02:49.213Z,63.10
2018-04-13T05:05:16.775Z,62.90
2018-04-13T05:07:45.338Z,68.20
2018-04-13T05:10:12.884Z,69.80
2018-04-13T05:12:41.220Z,68.50
2018-04-13T05:15:08.769Z,68.40
2018-04-13T05:17:37.117Z,67.50
2018-04-13T05:20:04.665Z,67.50
2018-04-13T05:22:32.266Z,66.30
2018-04-13T05:24:59.801Z,66.50
2018-04-13T05:27:27.350Z,66.40
2018-04-13T05:29:54.926Z,68.70
2018-04-13T05:32:22.476Z,68.70
2018-04-13T05:34:50.050Z,67.20
2018-04-13T05:37:18.366Z,66.00
2018-04-13T05:39:45.935Z,65.90
2018-04-13T05:42:13.485Z,64.60
2018-04-13T05:44:41.062Z,67.50
2018-04-13T05:47:08.616Z,70.20
2018-04-13T05:49:36.189Z,69.40
2018-04-13T05:52:03.821Z,67.10
2018-04-13T05:54:31.392Z,65.50
2018-04-13T05:56:58.939Z,69.70
2018-04-13T05:59:26.513Z,69.50
2018-04-13T06:01:54.063Z,69.20
2018-04-13T06:04:21.634Z,68.10
2018-04-13T06:06:49.185Z,74.20
2018-04-13T06:09:16.754Z,72.10
2018-04-13T06:11:44.317Z,71.30
2018-04-13T06:14:11.891Z,68.40
2018-04-13T06:16:39.440Z,70.90
2018-04-13T06:19:07.017Z,71.50
2018-04-13T06:21:34.574Z,72.10
2018-04-13T06:24:02.158Z,67.20
2018-04-13T06:26:29.704Z,73.00
2018-04-13T06:28:58.051Z,69.40
2018-04-13T06:31:25.605Z,69.40
2018-04-13T06:33:53.181Z,68.00
2018-04-13T06:36:20.765Z,72.90
2018-04-13T06:38:49.089Z,65.90
2018-04-13T06:41:16.661Z,65.80
2018-04-13T06:43:44.314Z,70.00
2018-04-13T06:46:11.863Z,67.20
2018-04-13T06:48:39.443Z,67.10
2018-04-13T06:51:07.028Z,66.40
2018-04-13T06:53:35.366Z,66.30
2018-04-13T06:56:02.941Z,66.20
2018-04-13T06:58:30.493Z,66.00
2018-04-13T07:00:58.832Z,64.90
2018-04-13T07:03:26.405Z,64.90
2018-04-13T07:05:53.982Z,62.40
2018-04-13T07:08:21.543Z,62.80
2018-04-13T07:10:49.123Z,62.10
2018-04-13T07:13:16.676Z,60.20
2018-04-13T07:15:44.249Z,61.40
2018-04-13T07:18:12.561Z,60.50
2018-04-13T07:20:40.129Z,60.60
2018-04-13T07:23:07.688Z,59.60
2018-04-13T07:25:35.257Z,60.20
2018-04-13T07:28:02.800Z,59.90
2018-04-13T07:30:30.381Z,61.10
2018-04-13T07:32:57.938Z,60.30
2018-04-13T07:35:26.299Z,59.00
2018-04-13T07:37:53.858Z,59.00
2018-04-13T07:40:21.418Z,59.10
2018-04-13T07:42:48.994Z,59.50
2018-04-13T07:45:16.797Z,58.30
2018-04-13T07:47:44.146Z,58.90
2018-04-13T07:50:11.701Z,59.90
2018-04-13T07:52:39.265Z,59.00
2018-04-13T07:55:06.957Z,59.30
2018-04-13T07:57:34.525Z,59.70
2018-04-13T08:00:02.074Z,59.30
2018-04-13T08:02:29.652Z,59.30
2018-04-13T08:04:57.197Z,59.00
2018-04-13T08:07:24.776Z,58.70
2018-04-13T08:09:52.333Z,58.80
2018-04-13T08:12:20.192Z,58.80
2018-04-13T08:14:47.473Z,58.70
2018-04-13T08:17:15.042Z,58.50
2018-04-13T08:19:42.593Z,58.10
2018-04-13T08:22:10.171Z,58.30
2018-04-13T08:24:37.713Z,58.10
2018-04-13T08:27:05.289Z,57.90
2018-04-13T08:29:32.839Z,57.90
2018-04-13T08:32:00.421Z,56.60
2018-04-13T08:34:27.989Z,57.00
2018-04-13T08:36:55.552Z,56.90
2018-04-13T08:39:23.100Z,57.10
2018-04-13T08:41:51.434Z,56.80
2018-04-13T08:44:18.992Z,56.70
2018-04-13T08:46:46.581Z,56.80
2018-04-13T08:49:14.996Z,57.10
2018-04-13T08:51:42.510Z,57.00
2018-04-13T08:54:10.116Z,56.80
2018-04-13T08:56:37.632Z,56.30
2018-04-13T08:59:05.210Z,56.20
2018-04-13T09:01:33.528Z,56.40
2018-04-13T09:04:01.104Z,56.30
2018-04-13T09:06:28.668Z,56.50
2018-04-13T09:08:56.257Z,56.30
2018-04-13T09:11:24.580Z,56.30
2018-04-13T09:13:52.157Z,56.30
2018-04-13T09:16:19.709Z,56.40
2018-04-13T09:18:47.286Z,55.80
2018-04-13T09:21:14.832Z,56.00
2018-04-13T09:23:42.404Z,56.10
2018-04-13T09:26:09.952Z,56.10
2018-04-13T09:28:37.517Z,56.10
2018-04-13T09:31:05.065Z,56.10
2018-04-13T09:33:32.638Z,55.40
2018-04-13T09:36:00.193Z,55.90
2018-04-13T09:38:27.765Z,56.10
2018-04-13T09:40:55.376Z,55.70
2018-04-13T09:43:22.944Z,55.80
2018-04-13T09:45:50.520Z,56.00
2018-04-13T09:48:18.094Z,55.50
2018-04-13T09:50:45.660Z,55.90
2018-04-13T09:53:13.222Z,55.90
2018-04-13T09:55:40.792Z,56.00
2018-04-13T09:58:08.337Z,55.70
2018-04-13T10:00:35.922Z,55.90
2018-04-13T10:03:03.473Z,55.70
2018-04-13T10:05:31.044Z,55.80
2018-04-13T10:07:58.597Z,56.10
2018-04-13T10:10:26.936Z,56.20
2018-04-13T10:12:54.484Z,56.20
2018-04-13T10:15:22.057Z,56.30
2018-04-13T10:17:49.608Z,56.20
2018-04-13T10:20:17.182Z,56.60
2018-04-13T10:22:44.734Z,56.30
2018-04-13T10:25:12.309Z,56.60
2018-04-13T10:27:40.627Z,57.20
2018-04-13T10:30:08.191Z,57.10
2018-04-13T10:32:35.743Z,56.90
2018-04-13T10:35:03.318Z,57.10
2018-04-13T10:37:30.878Z,57.10
2018-04-13T10:39:58.449Z,56.80
2018-04-13T10:42:26.760Z,57.50
2018-04-13T10:44:54.338Z,57.50
2018-04-13T10:47:21.889Z,57.80
2018-04-13T10:49:50.234Z,57.80
2018-04-13T10:52:17.776Z,57.80
2018-04-13T10:54:45.330Z,57.60
2018-04-13T10:57:12.914Z,58.00
2018-04-13T10:59:40.457Z,57.20
2018-04-13T11:02:08.064Z,57.90
2018-04-13T11:04:35.613Z,57.40
2018-04-13T11:07:03.966Z,57.40
2018-04-13T11:09:31.513Z,57.40
2018-04-13T11:11:59.093Z,57.70
2018-04-13T11:14:27.569Z,57.80
2018-04-13T11:16:55.204Z,57.80
2018-04-13T11:19:22.722Z,58.00
2018-04-13T11:21:50.297Z,58.70
2018-04-13T11:24:17.850Z,58.30
2018-04-13T11:26:45.420Z,58.50
2018-04-13T11:29:12.996Z,57.90
2018-04-13T11:31:40.618Z,58.40
2018-04-13T11:34:08.439Z,59.80
2018-04-13T11:36:36.013Z,59.30
2018-04-13T11:39:03.561Z,60.00
2018-04-13T11:41:31.135Z,60.00
2018-04-13T11:43:58.709Z,59.30
2018-04-13T11:46:26.365Z,60.30
2018-04-13T11:48:54.681Z,60.10
2018-04-13T11:51:22.245Z,60.00
2018-04-13T11:53:49.798Z,58.80
2018-04-13T11:56:17.368Z,60.30
2018-04-13T11:58:44.912Z,60.40
2018-04-13T12:01:12.485Z,59.50
2018-04-13T12:03:40.796Z,60.70
2018-04-13T12:06:08.373Z,60.70
2018-04-13T12:08:35.924Z,59.70
2018-04-13T12:11:04.244Z,59.90
2018-04-13T12:13:31.814Z,59.90
2018-04-13T12:15:59.365Z,59.60
2018-04-13T12:18:26.951Z,59.70
2018-04-13T12:20:54.502Z,60.00
2018-04-13T12:23:22.085Z,59.70
2018-04-13T12:25:50.401Z,59.90
2018-04-13T12:28:17.974Z,59.90
2018-04-13T12:30:45.528Z,59.70
2018-04-13T12:33:13.101Z,60.20
2018-04-13T12:35:40.653Z,59.50
2018-04-13T12:38:08.221Z,59.70
2018-04-13T12:40:35.761Z,60.00
2018-04-13T12:43:03.330Z,59.10
2018-04-13T12:45:30.889Z,59.20
2018-04-13T12:47:58.462Z,60.10
2018-04-13T12:50:26.777Z,60.10
2018-04-13T12:52:54.395Z,60.00
2018-04-13T12:55:21.959Z,60.90
2018-04-13T12:57:49.522Z,60.80
2018-04-13T13:00:17.092Z,60.80
2018-04-13T13:02:44.677Z,60.90
2018-04-13T13:05:12.230Z,61.20
2018-04-13T13:07:39.803Z,60.40
2018-04-13T13:10:07.349Z,60.60
2018-04-13T13:12:35.676Z,62.20
2018-04-13T13:15:03.245Z,62.10
2018-04-13T13:17:30.793Z,61.90
2018-04-13T13:19:58.364Z,61.20
2018-04-13T13:22:25.913Z,61.10
2018-04-13T13:24:53.482Z,61.60
2018-04-13T13:27:21.026Z,61.90
2018-04-13T13:29:48.599Z,60.80
2018-04-13T13:32:16.140Z,60.60
2018-04-13T13:34:43.720Z,60.10
2018-04-13T13:37:11.273Z,60.70
2018-04-13T13:39:39.606Z,61.00
2018-04-13T13:42:07.149Z,61.00
2018-04-13T13:44:34.717Z,61.00
2018-04-13T13:47:02.343Z,61.20
2018-04-13T13:49:29.914Z,61.40
2018-04-13T13:51:58.231Z,60.90
2018-04-13T13:54:25.801Z,60.40
2018-04-13T13:56:53.354Z,60.80
2018-04-13T13:59:20.924Z,60.10
2018-04-13T14:01:48.474Z,61.10
2018-04-13T14:04:16.045Z,60.80
2018-04-13T14:06:43.602Z,60.30
2018-04-13T14:09:11.169Z,61.10
2018-04-13T14:11:38.733Z,59.80
2018-04-13T14:14:06.324Z,60.30
2018-04-13T14:16:34.685Z,60.30
2018-04-13T14:19:02.254Z,60.30
2018-04-13T14:21:29.799Z,60.10
2018-04-13T14:23:57.342Z,59.80
2018-04-13T14:26:24.922Z,60.20
2018-04-13T14:28:52.510Z,59.70
2018-04-13T14:31:20.096Z,59.80
2018-04-13T14:33:47.650Z,59.30
2018-04-13T14:36:15.230Z,59.40
2018-04-13T14:38:42.785Z,59.80
2018-04-13T14:41:10.536Z,59.30
2018-04-13T14:43:38.095Z,59.10
2018-04-13T14:46:05.667Z,59.40
2018-04-13T14:48:33.217Z,59.40
2018-04-13T14:51:00.833Z,58.90
2018-04-13T14:53:28.610Z,59.00
2018-04-13T14:55:56.185Z,59.00
2018-04-13T14:58:23.753Z,59.20
2018-04-13T15:00:51.322Z,59.00
2018-04-13T15:03:18.870Z,58.90
2018-04-13T15:05:46.443Z,58.70
2018-04-13T15:08:13.988Z,58.70
2018-04-13T15:10:41.561Z,58.30
2018-04-13T15:13:09.117Z,58.40
2018-04-13T15:15:36.687Z,58.60
2018-04-13T15:18:04.233Z,58.30
2018-04-13T15:20:31.804Z,57.30
2018-04-13T15:22:59.353Z,56.40
2018-04-13T15:25:26.921Z,56.70
2018-04-13T15:27:54.471Z,56.80
2018-04-13T15:30:22.022Z,56.30
2018-04-13T15:32:50.357Z,55.10
2018-04-13T15:35:17.900Z,55.20
2018-04-13T15:37:45.476Z,54.70
2018-04-13T15:40:13.119Z,54.10
2018-04-13T15:42:40.661Z,54.20
2018-04-13T15:45:08.217Z,54.50
2018-04-13T15:47:35.794Z,54.40
2018-04-13T15:50:03.350Z,54.10
2018-04-13T15:52:30.921Z,54.70
2018-04-13T15:54:59.236Z,54.70
2018-04-13T15:57:26.801Z,54.00
2018-04-13T15:59:54.340Z,53.10
2018-04-13T16:02:21.994Z,51.70
2018-04-13T16:04:49.544Z,53.20
2018-04-13T16:07:17.881Z,50.80
2018-04-13T16:09:45.443Z,50.60
2018-04-13T16:12:13.022Z,52.10
2018-04-13T16:14:40.572Z,51.40
2018-04-13T16:17:08.140Z,51.80
2018-04-13T16:19:35.693Z,50.40
2018-04-13T16:22:03.265Z,49.60
2018-04-13T16:24:31.585Z,49.90
2018-04-13T16:26:59.157Z,49.70
2018-04-13T16:29:26.702Z,51.10
2018-04-13T16:31:54.268Z,50.20
2018-04-13T16:34:21.817Z,51.30
2018-04-13T16:36:49.402Z,51.60
2018-04-13T16:39:16.950Z,51.30
2018-04-13T16:41:44.516Z,51.80
2018-04-13T16:44:12.133Z,49.90
2018-04-13T16:46:39.686Z,51.70
2018-04-13T16:49:08.025Z,51.70
2018-04-13T16:51:35.586Z,51.80
2018-04-13T16:54:03.153Z,52.40
2018-04-13T16:56:30.706Z,52.70
2018-04-13T16:58:58.420Z,52.30
2018-04-13T17:01:25.977Z,52.70
2018-04-13T17:03:53.553Z,52.70
2018-04-13T17:06:21.105Z,52.80
2018-04-13T17:08:48.805Z,53.00
2018-04-13T17:11:16.365Z,52.50
2018-04-13T17:13:44.618Z,52.30
2018-04-13T17:16:12.261Z,52.90
2018-04-13T17:18:39.829Z,52.90
2018-04-13T17:21:07.383Z,53.00
2018-04-13T17:23:34.958Z,53.00
2018-04-13T17:26:02.517Z,53.20
2018-04-13T17:28:31.721Z,53.50
2018-04-13T17:30:59.273Z,54.30
2018-04-13T17:33:26.850Z,54.50
2018-04-13T17:35:54.401Z,54.60
2018-04-13T17:38:21.973Z,54.50
2018-04-13T17:40:49.521Z,54.60
2018-04-13T17:43:17.089Z,54.80
2018-04-13T17:45:44.667Z,54.70
2018-04-13T17:48:12.240Z,55.90
2018-04-13T17:50:39.855Z,56.70
2018-04-13T17:53:07.437Z,55.90
2018-04-13T17:55:35.009Z,56.90
2018-04-13T17:58:02.561Z,56.80
2018-04-13T18:00:30.575Z,56.50
2018-04-13T18:02:58.136Z,57.10
2018-04-13T18:05:25.763Z,56.80
2018-04-13T18:07:53.931Z,57.10
2018-04-13T18:10:21.574Z,57.10
2018-04-13T18:12:49.890Z,56.40
2018-04-13T18:15:17.458Z,56.40
2018-04-13T18:17:45.000Z,57.50
2018-04-13T18:20:12.574Z,57.30
2018-04-13T18:22:40.120Z,56.40
2018-04-13T18:25:07.698Z,57.50
2018-04-13T18:27:35.278Z,57.90
2018-04-13T18:30:02.865Z,57.30
2018-04-13T18:32:31.272Z,58.10
2018-04-13T18:34:58.844Z,58.00
2018-04-13T18:37:26.398Z,57.90
2018-04-13T18:39:53.975Z,58.30
2018-04-13T18:42:21.534Z,58.20
2018-04-13T18:44:49.101Z,58.50
2018-04-13T18:47:17.492Z,58.00
2018-04-13T18:49:47.661Z,58.00
2018-04-13T18:52:15.452Z,57.60
2018-04-13T18:54:43.285Z,57.00
2018-04-13T18:57:10.834Z,58.20
2018-04-13T18:59:39.190Z,59.50
2018-04-13T19:02:07.657Z,59.50
2018-04-13T19:04:35.209Z,57.70
2018-04-13T19:07:02.791Z,59.10
2018-04-13T19:09:30.388Z,59.20
2018-04-13T19:11:57.949Z,60.20
2018-04-13T19:14:25.499Z,58.10
2018-04-13T19:16:53.089Z,59.20
2018-04-13T19:19:20.637Z,59.60
2018-04-13T19:21:48.855Z,59.20
2018-04-13T19:24:16.408Z,58.40
2018-04-13T19:26:43.981Z,60.00
2018-04-13T19:29:11.529Z,59.20
2018-04-13T19:31:39.129Z,60.40
2018-04-13T19:34:06.673Z,58.20
2018-04-13T19:36:35.001Z,58.60
2018-04-13T19:39:02.584Z,58.50
2018-04-13T19:41:30.161Z,60.80
2018-04-13T19:43:58.477Z,61.80
2018-04-13T19:46:26.044Z,62.70
2018-04-13T19:48:53.585Z,60.10
2018-04-13T19:51:21.152Z,61.80
2018-04-13T19:53:48.717Z,59.70
2018-04-13T19:56:16.319Z,61.00
2018-04-13T19:58:43.878Z,58.40
2018-04-13T20:01:11.453Z,61.20
2018-04-13T20:03:39.762Z,60.80
2018-04-13T20:06:07.334Z,60.60
2018-04-13T20:08:34.891Z,59.50
2018-04-13T20:11:02.466Z,60.70
2018-04-13T20:13:30.022Z,58.80
2018-04-13T20:15:57.601Z,60.70
2018-04-13T20:18:25.149Z,58.50
2018-04-13T20:20:52.725Z,58.10
2018-04-13T20:23:20.292Z,60.60
2018-04-13T20:25:48.610Z,62.70
2018-04-13T20:28:16.190Z,62.60
2018-04-13T20:30:43.751Z,62.50
2018-04-13T20:33:11.326Z,59.70
2018-04-13T20:35:38.874Z,58.20
2018-04-13T20:38:06.452Z,58.40
2018-04-13T20:40:34.026Z,59.80
2018-04-13T20:43:02.365Z,60.10
2018-04-13T20:45:29.926Z,60.10
2018-04-13T20:47:57.501Z,59.40
2018-04-13T20:50:25.045Z,60.20
2018-04-13T20:52:52.618Z,59.80
2018-04-13T20:55:20.214Z,60.60
2018-04-13T20:57:47.785Z,59.50
2018-04-13T21:00:15.330Z,59.30
2018-04-13T21:02:43.679Z,58.40
2018-04-13T21:05:12.001Z,60.00
2018-04-13T21:07:39.592Z,59.90
2018-04-13T21:10:07.144Z,60.50
2018-04-13T21:12:35.506Z,59.50
2018-04-13T21:15:03.110Z,59.40
2018-04-13T21:17:30.681Z,63.70
2018-04-13T21:19:58.228Z,64.50
2018-04-13T21:22:25.805Z,62.10
2018-04-13T21:24:54.121Z,63.70
2018-04-13T21:27:21.677Z,63.70
2018-04-13T21:29:49.256Z,60.10
2018-04-13T21:32:16.799Z,61.00
2018-04-13T21:34:44.374Z,61.90
2018-04-13T21:37:11.919Z,61.40
2018-04-13T21:39:39.480Z,59.60
2018-04-13T21:42:07.029Z,60.20
2018-04-13T21:44:34.593Z,61.10
2018-04-13T21:47:02.136Z,62.10
2018-04-13T21:49:29.706Z,62.10
2018-04-13T21:51:57.249Z,63.70
2018-04-13T21:54:24.819Z,64.60
2018-04-13T21:56:52.370Z,64.20
2018-04-13T21:59:19.938Z,63.20
2018-04-13T22:01:47.503Z,62.10
2018-04-13T22:04:15.065Z,62.10
2018-04-13T22:06:42.610Z,63.80
2018-04-13T22:09:10.176Z,63.70
2018-04-13T22:11:37.730Z,63.30
2018-04-13T22:14:17.220Z,63.30
2018-04-13T22:16:44.726Z,65.60
2018-04-13T22:19:12.296Z,63.10
2018-04-13T22:21:39.844Z,63.10
2018-04-13T22:24:07.427Z,62.80
2018-04-13T22:26:35.799Z,63.20
2018-04-13T22:29:03.400Z,62.90
2018-04-13T22:31:30.946Z,61.10
2018-04-13T22:33:58.496Z,61.00
2018-04-13T22:36:26.058Z,62.90
2018-04-13T22:38:53.614Z,63.10
2018-04-13T22:41:21.188Z,64.60
2018-04-13T22:43:48.733Z,63.40
2018-04-13T22:46:16.309Z,61.60
2018-04-13T22:48:43.857Z,62.90
2018-04-13T22:51:11.427Z,61.00
2018-04-13T22:53:39.732Z,62.00
2018-04-13T22:56:07.299Z,62.20
2018-04-13T22:58:34.846Z,65.80
2018-04-13T23:01:02.413Z,63.50
2018-04-13T23:03:29.956Z,62.50
2018-04-13T23:05:57.517Z,66.00
2018-04-13T23:08:25.063Z,63.50
2018-04-13T23:10:53.401Z,61.00
2018-04-13T23:13:20.953Z,61.00
2018-04-13T23:15:48.516Z,61.10
2018-04-13T23:18:16.060Z,61.30
2018-04-13T23:20:43.633Z,61.40
2018-04-13T23:23:11.164Z,65.10
2018-04-13T23:25:38.729Z,61.80
2018-04-13T23:28:06.278Z,65.40
2018-04-13T23:30:33.849Z,61.80
2018-04-13T23:33:01.395Z,62.20
2018-04-13T23:35:28.989Z,62.80
2018-04-13T23:37:56.533Z,60.90
2018-04-13T23:40:24.110Z,65.50
2018-04-13T23:42:51.656Z,62.30
2018-04-13T23:45:19.230Z,66.40
2018-04-13T23:47:46.785Z,64.40
2018-04-13T23:50:14.367Z,61.60
2018-04-13T23:52:42.682Z,61.60
2018-04-13T23:55:10.221Z,61.50
2018-04-13T23:57:39.393Z,65.00
